Time;durP1;ratioP1;P1;durP2;ratioP2;P2;SDS_P1;SDS_P2;PMS_P1;PMS_P2;Temp;Humidity;BMP_temperature;BMP_pressure;BME280_temperature;BME280_humidity;BME280_pressure;Samples;Min_cycle;Max_cycle;Signal;HPM_P1;HPM_P2
2022/08/10 00:02:44;;;;;;;8.68;2.95;;;20.50;24.80;;;;;;5035899;28;20414;-76
2022/08/10 00:05:10;;;;;;;7.27;2.70;;;20.50;25.10;;;;;;5036596;28;20395;-76
2022/08/10 00:07:35;;;;;;;7.83;2.40;;;20.40;25.50;;;;;;5036391;28;20765;-75
2022/08/10 00:10:01;;;;;;;5.18;2.60;;;20.40;25.40;;;;;;5034469;28;20433;-76
2022/08/10 00:12:27;;;;;;;6.35;3.13;;;20.30;25.80;;;;;;5031874;28;21042;-75
2022/08/10 00:14:53;;;;;;;5.60;2.70;;;20.20;26.00;;;;;;5032045;28;20452;-76
2022/08/10 00:17:18;;;;;;;5.63;3.00;;;20.10;26.30;;;;;;5032204;28;20394;-76
2022/08/10 00:19:44;;;;;;;4.37;2.60;;;20.10;26.40;;;;;;5031816;28;20466;-76
2022/08/10 00:22:10;;;;;;;5.40;2.80;;;20.10;26.30;;;;;;5031569;28;20856;-75
2022/08/10 00:24:36;;;;;;;4.00;3.00;;;20.20;26.10;;;;;;5033472;28;20828;-75
2022/08/10 00:27:02;;;;;;;5.18;2.78;;;20.20;26.20;;;;;;5033077;28;20382;-76
2022/08/10 00:29:28;;;;;;;6.00;3.00;;;20.20;26.20;;;;;;5033705;28;20465;-76
2022/08/10 00:31:54;;;;;;;6.18;3.10;;;20.10;26.40;;;;;;5032296;28;20391;-75
2022/08/10 00:34:20;;;;;;;4.67;3.20;;;20.20;26.40;;;;;;5033071;28;20514;-74
2022/08/10 00:36:45;;;;;;;3.20;2.88;;;20.10;26.40;;;;;;5033089;28;20759;-77
2022/08/10 00:39:11;;;;;;;3.50;2.60;;;20.00;26.50;;;;;;5032831;28;20422;-76
2022/08/10 00:41:36;;;;;;;3.30;2.70;;;20.00;26.80;;;;;;5032696;28;20394;-76
2022/08/10 00:44:02;;;;;;;5.70;3.30;;;19.90;27.20;;;;;;5031996;28;20379;-74
2022/08/10 00:46:27;;;;;;;7.07;2.78;;;20.00;27.00;;;;;;5031538;28;20402;-75
2022/08/10 00:48:53;;;;;;;5.30;2.90;;;19.90;27.40;;;;;;5031138;28;20387;-75
2022/08/10 00:51:19;;;;;;;5.97;2.80;;;19.80;27.60;;;;;;5031906;28;20387;-75
2022/08/10 00:53:44;;;;;;;3.17;2.78;;;19.80;27.70;;;;;;5031053;28;20406;-75
2022/08/10 00:56:10;;;;;;;7.37;3.40;;;19.80;27.80;;;;;;5031272;28;20518;-76
2022/08/10 00:58:37;;;;;;;4.93;2.80;;;19.70;28.40;;;;;;5031360;28;20379;-75
2022/08/10 01:01:03;;;;;;;7.82;2.90;;;19.70;28.30;;;;;;5031421;28;20395;-77
2022/08/10 01:03:28;;;;;;;4.37;3.00;;;19.70;28.50;;;;;;5031180;28;20803;-76
2022/08/10 01:06:04;;;;;;;6.83;3.03;;;19.60;28.80;;;;;;5031231;28;20402;-76
2022/08/10 01:08:37;;;;;;;5.60;2.80;;;19.50;29.40;;;;;;5031316;28;20398;-76
2022/08/10 01:11:26;;;;;;;3.85;3.00;;;19.50;29.30;;;;;;5030117;28;20911;-76
2022/08/10 01:14:06;;;;;;;3.85;2.90;;;19.30;30.10;;;;;;5030922;28;20918;-76
2022/08/10 01:16:37;;;;;;;6.57;3.00;;;19.30;30.60;;;;;;5031488;28;20874;-76
2022/08/10 01:19:32;;;;;;;6.72;3.20;;;19.30;30.50;;;;;;5031242;28;20458;-75
2022/08/10 01:22:35;;;;;;;8.18;3.00;;;19.20;30.80;;;;;;5030881;28;20776;-76
2022/08/10 01:25:20;;;;;;;5.65;3.17;;;19.20;31.10;;;;;;5020813;28;20398;-76
2022/08/10 01:28:11;;;;;;;4.22;3.20;;;19.10;31.50;;;;;;5031488;28;20533;-76
2022/08/10 01:30:39;;;;;;;6.10;3.00;;;19.00;32.00;;;;;;5032088;28;20760;-75
2022/08/10 01:33:09;;;;;;;5.15;2.80;;;19.00;32.20;;;;;;5030283;28;20425;-77
2022/08/10 01:36:00;;;;;;;4.85;2.92;;;19.10;31.80;;;;;;5031173;28;20462;-75
2022/08/10 01:38:35;;;;;;;6.18;3.00;;;19.20;31.40;;;;;;5027773;28;20407;-77
2022/08/10 01:41:05;;;;;;;4.35;3.10;;;19.10;31.50;;;;;;5032213;28;20375;-77
2022/08/10 01:43:35;;;;;;;5.07;2.83;;;19.00;32.10;;;;;;5031645;28;20391;-76
2022/08/10 01:46:04;;;;;;;6.00;3.10;;;18.70;33.30;;;;;;5031412;28;20470;-76
2022/08/10 01:48:33;;;;;;;5.05;2.92;;;18.50;34.30;;;;;;5030803;28;20453;-76
2022/08/10 01:51:01;;;;;;;7.30;3.20;;;18.60;34.30;;;;;;5034886;28;20418;-76
2022/08/10 01:53:41;;;;;;;6.80;3.10;;;18.60;34.30;;;;;;5036874;28;20772;-76
2022/08/10 01:56:11;;;;;;;4.17;3.10;;;18.60;34.10;;;;;;5036085;28;20387;-76
2022/08/10 01:58:38;;;;;;;5.90;3.25;;;18.70;34.60;;;;;;5036274;28;20470;-76
2022/08/10 02:01:06;;;;;;;4.00;2.90;;;18.80;33.90;;;;;;5036267;28;20387;-76
2022/08/10 02:03:33;;;;;;;3.33;2.92;;;18.70;34.00;;;;;;5035550;28;20791;-75
2022/08/10 02:06:01;;;;;;;8.77;3.50;;;18.60;34.90;;;;;;5036124;28;20760;-75
2022/08/10 02:08:29;;;;;;;4.55;3.08;;;18.70;35.00;;;;;;5043174;28;20387;-75
2022/08/10 02:10:57;;;;;;;6.80;3.10;;;18.60;35.00;;;;;;5040480;28;20383;-75
2022/08/10 02:13:24;;;;;;;6.93;3.20;;;18.70;34.80;;;;;;5038786;28;20407;-73
2022/08/10 02:15:51;;;;;;;9.73;3.95;;;18.80;34.50;;;;;;5044695;28;20384;-75
2022/08/10 02:18:18;;;;;;;10.73;3.67;;;18.60;35.20;;;;;;5046449;28;20386;-76
2022/08/10 02:20:47;;;;;;;5.77;3.20;;;18.60;35.20;;;;;;5054707;28;20446;-74
2022/08/10 02:23:23;;;;;;;7.10;3.40;;;18.70;34.70;;;;;;5053605;28;20469;-75
2022/08/10 02:25:50;;;;;;;6.20;3.30;;;18.60;35.10;;;;;;5048239;28;20864;-75
2022/08/10 02:28:19;;;;;;;7.88;3.75;;;18.40;36.00;;;;;;5040029;28;20488;-75
2022/08/10 02:30:45;;;;;;;6.35;3.20;;;18.40;36.20;;;;;;5033921;28;20397;-76
2022/08/10 02:33:13;;;;;;;6.53;3.43;;;18.50;36.30;;;;;;5033506;28;20410;-76
2022/08/10 02:35:41;;;;;;;7.78;3.70;;;18.50;35.90;;;;;;5033592;28;20437;-76
2022/08/10 02:38:08;;;;;;;4.85;3.00;;;18.60;35.70;;;;;;5033528;28;20379;-76
2022/08/10 02:40:40;;;;;;;8.00;3.58;;;18.50;36.80;;;;;;5033478;28;20509;-75
2022/08/10 02:43:18;;;;;;;7.15;3.60;;;18.40;36.30;;;;;;5033308;28;20437;-76
2022/08/10 02:45:47;;;;;;;7.72;3.60;;;18.40;36.50;;;;;;5033276;28;20406;-73
2022/08/10 02:48:22;;;;;;;4.97;3.42;;;18.50;36.40;;;;;;5033195;28;20426;-76
2022/08/10 02:50:58;;;;;;;4.80;3.40;;;18.40;36.60;;;;;;5033625;28;20938;-77
2022/08/10 02:53:42;;;;;;;6.55;3.53;;;18.40;36.40;;;;;;5033497;28;20911;-76
2022/08/10 02:56:21;;;;;;;6.30;3.25;;;18.50;36.40;;;;;;5034210;28;20860;-75
2022/08/10 02:59:02;;;;;;;6.68;3.22;;;18.40;36.60;;;;;;5033333;28;20384;-75
2022/08/10 03:01:36;;;;;;;7.53;3.10;;;18.30;37.20;;;;;;5031857;28;20421;-76
2022/08/10 03:04:10;;;;;;;7.33;3.90;;;18.10;38.10;;;;;;5032834;28;20379;-76
2022/08/10 03:06:40;;;;;;;7.63;3.20;;;18.10;39.00;;;;;;5032692;28;20433;-76
2022/08/10 03:09:09;;;;;;;7.55;3.55;;;18.10;39.20;;;;;;5032774;28;20397;-76
2022/08/10 03:11:37;;;;;;;8.68;3.58;;;18.20;38.40;;;;;;5032792;28;20383;-75
2022/08/10 03:14:04;;;;;;;5.07;3.40;;;18.20;38.30;;;;;;5032487;28;20415;-76
2022/08/10 03:16:32;;;;;;;6.32;3.45;;;18.20;37.80;;;;;;5032584;28;20383;-76
2022/08/10 03:19:03;;;;;;;8.30;3.88;;;18.30;37.90;;;;;;5032441;28;20409;-76
2022/08/10 03:21:30;;;;;;;4.63;3.53;;;18.20;38.40;;;;;;5032142;28;20445;-75
2022/08/10 03:23:58;;;;;;;8.32;4.35;;;18.10;38.50;;;;;;5032501;28;20478;-75
2022/08/10 03:26:25;;;;;;;8.20;3.45;;;18.20;38.40;;;;;;5032465;28;20387;-75
2022/08/10 03:28:52;;;;;;;5.43;3.50;;;18.20;38.10;;;;;;5032385;28;20512;-75
2022/08/10 03:31:18;;;;;;;5.20;3.70;;;18.20;38.20;;;;;;5032295;28;20699;-75
2022/08/10 03:33:45;;;;;;;13.10;3.50;;;18.20;38.40;;;;;;5032271;28;20403;-75
2022/08/10 03:36:11;;;;;;;8.07;3.55;;;18.10;38.60;;;;;;5032285;28;20907;-75
2022/08/10 03:38:39;;;;;;;5.85;3.67;;;18.10;38.40;;;;;;5032526;28;20387;-76
2022/08/10 03:41:07;;;;;;;5.13;3.80;;;17.90;39.70;;;;;;5031717;28;20391;-75
2022/08/10 03:43:33;;;;;;;5.05;3.90;;;18.00;39.70;;;;;;5032151;28;20390;-76
2022/08/10 03:46:05;;;;;;;7.57;3.75;;;18.00;40.10;;;;;;5031865;28;20410;-75
2022/08/10 03:48:32;;;;;;;4.75;3.63;;;17.80;41.00;;;;;;5032193;28;20425;-75
2022/08/10 03:51:00;;;;;;;11.98;5.07;;;17.80;42.00;;;;;;5031563;28;20830;-75
2022/08/10 03:53:25;;;;;;;7.10;4.40;;;17.90;41.50;;;;;;5031900;28;20415;-75
2022/08/10 03:55:52;;;;;;;11.63;4.28;;;18.00;41.10;;;;;;5031766;28;20379;-75
2022/08/10 03:58:17;;;;;;;7.90;4.40;;;17.80;42.40;;;;;;5031651;28;20379;-75
2022/08/10 04:00:45;;;;;;;6.20;3.83;;;17.70;43.20;;;;;;5031834;28;20543;-74
2022/08/10 04:03:11;;;;;;;21.02;10.05;;;17.80;43.50;;;;;;5031655;28;20399;-75
2022/08/10 04:05:37;;;;;;;8.77;4.22;;;17.70;44.50;;;;;;5031746;28;20490;-75
2022/08/10 04:08:04;;;;;;;7.63;4.40;;;17.50;44.80;;;;;;5031427;28;20479;-74
2022/08/10 04:10:30;;;;;;;7.30;3.72;;;17.40;46.30;;;;;;5031603;28;20473;-74
2022/08/10 04:12:55;;;;;;;6.65;4.60;;;17.50;46.30;;;;;;5031150;28;20489;-74
2022/08/10 04:15:23;;;;;;;5.65;4.00;;;17.60;46.00;;;;;;5031588;28;20423;-74
2022/08/10 04:17:49;;;;;;;8.32;4.47;;;17.60;45.90;;;;;;5031831;28;20379;-75
2022/08/10 04:20:25;;;;;;;6.93;4.22;;;17.60;46.40;;;;;;5031569;28;20375;-75
2022/08/10 04:22:55;;;;;;;8.02;4.70;;;17.40;47.70;;;;;;5031975;28;20387;-75
2022/08/10 04:25:22;;;;;;;11.55;5.03;;;17.50;48.00;;;;;;5031797;28;20717;-75
2022/08/10 04:27:49;;;;;;;11.43;4.70;;;17.30;49.10;;;;;;5031175;28;20382;-75
2022/08/10 04:30:15;;;;;;;11.75;4.55;;;17.40;48.70;;;;;;5031638;28;20391;-76
2022/08/10 04:32:42;;;;;;;11.30;4.43;;;17.50;47.40;;;;;;5021660;28;20516;-76
2022/08/10 04:35:09;;;;;;;9.93;4.70;;;17.50;48.30;;;;;;5031585;28;20479;-76
2022/08/10 04:37:37;;;;;;;9.73;4.72;;;17.50;48.10;;;;;;5036231;28;20378;-75
2022/08/10 04:40:04;;;;;;;8.25;4.65;;;17.50;48.30;;;;;;5051335;28;20468;-75
2022/08/10 04:42:30;;;;;;;10.55;5.60;;;17.50;47.90;;;;;;5051090;28;20390;-75
2022/08/10 04:44:56;;;;;;;7.38;4.43;;;17.30;50.00;;;;;;5053785;28;20384;-77
2022/08/10 04:47:21;;;;;;;8.77;4.80;;;17.40;50.10;;;;;;5041664;28;20753;-75
2022/08/10 04:49:47;;;;;;;8.60;4.80;;;17.70;48.30;;;;;;5039244;28;20876;-75
2022/08/10 04:52:13;;;;;;;7.40;4.50;;;17.80;47.00;;;;;;5051194;28;20390;-75
2022/08/10 04:54:39;;;;;;;8.45;4.22;;;17.80;47.10;;;;;;5051269;28;20401;-75
2022/08/10 04:57:04;;;;;;;9.75;4.82;;;17.80;46.80;;;;;;5052303;28;20389;-75
2022/08/10 04:59:30;;;;;;;8.68;5.30;;;17.90;46.50;;;;;;5052530;28;20728;-75
2022/08/10 05:01:55;;;;;;;10.93;5.27;;;17.90;46.50;;;;;;5051453;28;20789;-75
2022/08/10 05:04:21;;;;;;;8.70;5.27;;;17.90;46.50;;;;;;5052711;28;20401;-76
2022/08/10 05:06:46;;;;;;;49.38;12.20;;;17.90;46.50;;;;;;5056345;28;20400;-77
2022/08/10 05:09:12;;;;;;;8.80;5.10;;;17.90;47.30;;;;;;5053271;28;20415;-75
2022/08/10 05:11:38;;;;;;;9.53;5.00;;;18.00;46.30;;;;;;5038780;28;20466;-75
2022/08/10 05:14:03;;;;;;;8.27;5.20;;;18.00;45.80;;;;;;5035957;28;20413;-76
2022/08/10 05:16:29;;;;;;;9.48;5.10;;;17.90;46.30;;;;;;5025588;28;20416;-76
2022/08/10 05:18:54;;;;;;;11.30;5.33;;;17.90;46.70;;;;;;5028802;28;20414;-75
2022/08/10 05:21:20;;;;;;;11.40;5.30;;;18.00;46.00;;;;;;5028698;28;20474;-74
2022/08/10 05:23:45;;;;;;;10.10;5.30;;;18.10;45.40;;;;;;5031132;28;20448;-75
2022/08/10 05:26:11;;;;;;;17.08;5.85;;;18.20;45.00;;;;;;5032695;28;20430;-75
2022/08/10 05:28:36;;;;;;;11.63;5.03;;;18.10;45.60;;;;;;5032262;28;20410;-74
2022/08/10 05:31:02;;;;;;;11.83;5.30;;;18.10;44.90;;;;;;5030731;28;20435;-74
2022/08/10 05:33:28;;;;;;;15.90;5.32;;;18.10;45.70;;;;;;5033632;28;20891;-79
2022/08/10 05:35:53;;;;;;;15.65;6.40;;;18.30;44.60;;;;;;5022901;28;20400;-75
2022/08/10 05:38:21;;;;;;;8.47;5.30;;;18.40;42.80;;;;;;5053131;28;20720;-76
2022/08/10 05:40:48;;;;;;;10.63;5.22;;;18.60;42.30;;;;;;5039763;28;20900;-78
2022/08/10 05:43:16;;;;;;;9.05;5.63;;;18.70;41.00;;;;;;5033328;28;20394;-76
2022/08/10 05:45:41;;;;;;;10.90;5.65;;;18.80;40.10;;;;;;5033318;28;20536;-76
2022/08/10 05:48:07;;;;;;;13.80;5.27;;;18.90;39.80;;;;;;5033047;28;20485;-76
2022/08/10 05:50:35;;;;;;;8.25;5.00;;;18.90;40.60;;;;;;5033167;28;20395;-76
2022/08/10 05:53:01;;;;;;;10.55;5.90;;;19.00;39.90;;;;;;5041890;28;20548;-76
2022/08/10 05:55:29;;;;;;;9.30;5.40;;;19.20;38.70;;;;;;5051288;28;20450;-77
2022/08/10 05:57:57;;;;;;;11.13;5.40;;;19.30;37.80;;;;;;5050404;28;20381;-78
2022/08/10 06:00:25;;;;;;;10.20;5.97;;;19.40;36.70;;;;;;5032430;28;20421;-75
2022/08/10 06:02:54;;;;;;;9.60;5.38;;;19.50;37.20;;;;;;5032458;28;20994;-76
2022/08/10 06:05:29;;;;;;;7.43;4.78;;;19.60;35.50;;;;;;5032044;28;20771;-76
2022/08/10 06:08:07;;;;;;;9.27;4.97;;;19.70;34.40;;;;;;5032328;28;20902;-75
2022/08/10 06:10:35;;;;;;;16.45;4.82;;;19.70;34.30;;;;;;5032435;28;20521;-78
2022/08/10 06:15:49;;;;;;;6.60;4.60;;;20.00;31.90;;;;;;5053085;28;20446;-77
2022/08/10 06:18:17;;;;;;;9.98;5.35;;;20.30;31.10;;;;;;5039247;28;20395;-75
2022/08/10 06:20:44;;;;;;;9.70;4.40;;;20.40;30.70;;;;;;5032476;28;20403;-77
2022/08/10 06:23:11;;;;;;;12.82;4.93;;;20.50;30.10;;;;;;5032437;28;20505;-76
2022/08/10 06:25:37;;;;;;;9.27;4.90;;;20.50;28.80;;;;;;5041404;28;20399;-77
2022/08/10 06:28:05;;;;;;;7.07;4.50;;;20.60;28.60;;;;;;5012270;28;20438;-78
2022/08/10 06:30:32;;;;;;;12.18;4.80;;;20.80;29.10;;;;;;5011000;28;20397;-77
2022/08/10 06:33:01;;;;;;;10.85;4.90;;;20.90;29.30;;;;;;5012325;28;20495;-76
2022/08/10 06:35:29;;;;;;;16.52;5.65;;;21.00;29.30;;;;;;5011792;28;20381;-76
2022/08/10 06:37:57;;;;;;;9.35;5.00;;;21.20;29.00;;;;;;5051462;28;20439;-76
2022/08/10 06:40:26;;;;;;;7.25;4.60;;;21.30;28.00;;;;;;5036498;28;20518;-77
2022/08/10 06:42:54;;;;;;;11.10;4.65;;;21.40;26.40;;;;;;5033177;28;20414;-76
2022/08/10 06:45:34;;;;;;;9.38;4.50;;;21.40;25.80;;;;;;5033752;28;20403;-76
2022/08/10 06:48:04;;;;;;;9.02;3.83;;;21.50;25.60;;;;;;5035059;28;20409;-76
2022/08/10 06:50:45;;;;;;;7.60;4.73;;;21.40;25.70;;;;;;5034271;28;20407;-77
2022/08/10 06:53:15;;;;;;;9.15;4.85;;;21.50;25.20;;;;;;5057842;28;20428;-77
2022/08/10 06:55:45;;;;;;;7.53;4.50;;;21.50;25.20;;;;;;5055405;28;20391;-76
2022/08/10 06:58:14;;;;;;;9.27;4.63;;;21.60;25.30;;;;;;5046564;28;20426;-77
2022/08/10 07:00:41;;;;;;;13.52;4.57;;;21.70;25.20;;;;;;5043387;28;20397;-77
2022/08/10 07:03:10;;;;;;;10.00;4.00;;;21.80;24.90;;;;;;5011767;28;20762;-77
2022/08/10 07:05:50;;;;;;;6.80;4.32;;;22.00;24.60;;;;;;5030684;28;20749;-78
2022/08/10 07:08:18;;;;;;;12.93;4.60;;;22.10;24.00;;;;;;5031690;28;20410;-77
2022/08/10 07:10:45;;;;;;;6.80;4.50;;;22.20;23.60;;;;;;5031572;28;20418;-76
2022/08/10 07:13:13;;;;;;;8.93;3.90;;;22.20;23.00;;;;;;5031307;28;20437;-76
2022/08/10 07:15:40;;;;;;;10.07;3.93;;;22.30;23.00;;;;;;5014441;28;20489;-76
2022/08/10 07:18:07;;;;;;;8.37;4.30;;;22.40;22.60;;;;;;5011351;28;20384;-76
2022/08/10 07:20:34;;;;;;;7.30;4.00;;;22.40;22.70;;;;;;5011407;28;20391;-76
2022/08/10 07:23:02;;;;;;;8.23;3.92;;;22.50;22.50;;;;;;5011004;28;20484;-77
2022/08/10 07:25:29;;;;;;;5.93;3.90;;;22.50;22.20;;;;;;5011164;28;20399;-79
2022/08/10 07:27:58;;;;;;;7.40;4.20;;;22.50;21.40;;;;;;5022542;28;20430;-75
2022/08/10 07:30:29;;;;;;;8.60;4.18;;;22.60;21.50;;;;;;5028552;28;20547;-77
2022/08/10 07:32:55;;;;;;;8.40;4.00;;;22.60;21.50;;;;;;5030512;28;20421;-77
2022/08/10 07:35:22;;;;;;;9.00;4.43;;;22.70;21.30;;;;;;5031234;28;20387;-76
2022/08/10 07:37:51;;;;;;;10.60;4.30;;;22.70;21.90;;;;;;5030428;28;20397;-77
2022/08/10 07:40:19;;;;;;;12.80;4.43;;;22.90;20.70;;;;;;5023825;28;20406;-76
2022/08/10 07:42:48;;;;;;;12.27;4.40;;;23.00;20.70;;;;;;5036018;28;20375;-76
2022/08/10 07:45:13;;;;;;;6.00;3.72;;;23.10;19.90;;;;;;5043557;28;20477;-77
2022/08/10 07:47:48;;;;;;;9.18;4.07;;;23.10;19.80;;;;;;5040168;28;20422;-76
2022/08/10 07:50:17;;;;;;;5.88;3.92;;;23.40;19.70;;;;;;5034059;28;20795;-77
2022/08/10 07:52:46;;;;;;;6.83;3.70;;;23.40;19.20;;;;;;5033586;28;20431;-77
2022/08/10 07:55:15;;;;;;;11.20;4.38;;;23.50;19.30;;;;;;5033394;28;20432;-77
2022/08/10 07:57:45;;;;;;;7.85;4.40;;;23.50;18.90;;;;;;5028223;28;20453;-75
2022/08/10 08:00:11;;;;;;;6.00;4.18;;;23.50;18.80;;;;;;5032684;28;20915;-78
2022/08/10 08:02:57;;;;;;;8.60;3.83;;;23.60;18.60;;;;;;5032620;28;20422;-77
2022/08/10 08:07:57;;;;;;;7.40;3.90;;;23.80;17.90;;;;;;5050444;28;20719;-73
2022/08/10 08:10:25;;;;;;;7.22;4.13;;;23.90;17.60;;;;;;5051635;28;20413;-71
2022/08/10 08:12:53;;;;;;;8.27;4.00;;;23.90;17.90;;;;;;5051739;28;20528;-72
2022/08/10 08:15:21;;;;;;;8.52;3.90;;;24.00;17.70;;;;;;5052041;28;20409;-73
2022/08/10 08:17:48;;;;;;;8.00;4.15;;;24.10;17.60;;;;;;5031924;28;20756;-72
2022/08/10 08:20:16;;;;;;;7.65;4.30;;;24.10;17.50;;;;;;5031906;28;20457;-72
2022/08/10 08:22:43;;;;;;;9.25;4.40;;;24.20;17.50;;;;;;5034952;28;20387;-72
2022/08/10 08:25:10;;;;;;;7.95;4.32;;;24.50;16.60;;;;;;5033850;28;20949;-73
2022/08/10 08:27:38;;;;;;;8.40;5.15;;;24.70;16.50;;;;;;5033437;28;20721;-73
2022/08/10 08:30:06;;;;;;;10.57;4.20;;;24.80;16.40;;;;;;5033332;28;20395;-73
2022/08/10 08:32:34;;;;;;;7.63;4.50;;;24.90;16.10;;;;;;5065063;28;20752;-73
2022/08/10 08:35:12;;;;;;;6.55;4.10;;;24.90;15.60;;;;;;5031609;28;20552;-72
2022/08/10 08:37:40;;;;;;;7.35;4.28;;;24.90;15.60;;;;;;5034831;28;20386;-74
2022/08/10 08:40:23;;;;;;;9.18;4.38;;;24.90;15.50;;;;;;5034036;28;20880;-74
2022/08/10 08:43:30;;;;;;;11.10;4.80;;;25.00;15.30;;;;;;5036721;28;20887;-73
2022/08/10 08:46:33;;;;;;;12.63;4.70;;;25.00;15.20;;;;;;5037116;28;20410;-72
2022/08/10 08:49:07;;;;;;;15.40;5.20;;;25.10;15.20;;;;;;5034656;28;20391;-72
2022/08/10 08:51:51;;;;;;;6.20;4.15;;;25.30;14.90;;;;;;5033553;28;20444;-74
2022/08/10 08:54:35;;;;;;;8.68;3.90;;;25.40;15.00;;;;;;5032452;28;20419;-72
2022/08/10 08:57:19;;;;;;;7.97;4.10;;;25.60;14.10;;;;;;5031394;28;20406;-73
2022/08/10 08:59:52;;;;;;;8.43;4.30;;;25.60;14.10;;;;;;5030439;28;20402;-73
2022/08/10 09:02:53;;;;;;;8.15;4.50;;;25.60;13.80;;;;;;5030653;28;20394;-72
2022/08/10 09:05:55;;;;;;;4.93;3.80;;;25.70;13.70;;;;;;5020281;28;20395;-71
2022/08/10 09:08:39;;;;;;;4.65;3.40;;;25.80;13.70;;;;;;5010302;28;20493;-71
2022/08/10 09:11:12;;;;;;;8.43;5.15;;;25.90;13.30;;;;;;5008881;28;20393;-74
2022/08/10 09:13:48;;;;;;;9.20;3.65;;;25.80;13.20;;;;;;5009762;28;20408;-72
2022/08/10 09:16:50;;;;;;;6.10;4.38;;;26.00;13.60;;;;;;5007639;28;20750;-72
2022/08/10 09:19:32;;;;;;;8.10;4.43;;;26.20;12.90;;;;;;5008707;28;20404;-72
2022/08/10 09:22:15;;;;;;;9.13;5.00;;;26.40;12.20;;;;;;5024639;28;20779;-72
2022/08/10 09:24:55;;;;;;;6.82;4.18;;;26.40;12.00;;;;;;5009421;28;20488;-74
2022/08/10 09:27:33;;;;;;;6.72;4.10;;;26.60;11.10;;;;;;5030153;28;20392;-73
2022/08/10 09:30:06;;;;;;;9.98;4.30;;;26.80;10.70;;;;;;5049615;28;20397;-70
2022/08/10 09:32:41;;;;;;;7.97;4.17;;;27.00;11.30;;;;;;5049520;28;20396;-72
2022/08/10 09:35:39;;;;;;;8.27;4.10;;;26.90;9.90;;;;;;5048930;28;20720;-72
2022/08/10 09:38:32;;;;;;;6.95;4.28;;;26.80;10.10;;;;;;5048599;28;20390;-74
2022/08/10 09:41:16;;;;;;;8.60;4.13;;;26.60;10.10;;;;;;5024237;28;20391;-72
2022/08/10 09:43:55;;;;;;;7.38;3.95;;;26.70;10.00;;;;;;5028232;28;20880;-72
2022/08/10 09:46:59;;;;;;;5.45;3.80;;;26.60;9.40;;;;;;5010747;28;20897;-72
2022/08/10 09:49:51;;;;;;;8.18;4.13;;;26.80;9.20;;;;;;5031382;28;20402;-74
2022/08/10 09:52:27;;;;;;;8.20;4.43;;;26.90;8.20;;;;;;5028753;28;20402;-72
2022/08/10 09:55:02;;;;;;;7.47;4.68;;;27.10;8.10;;;;;;5023113;28;20397;-71
2022/08/10 09:57:53;;;;;;;8.23;4.25;;;27.30;6.50;;;;;;5018439;28;20760;-71
2022/08/10 10:00:22;;;;;;;7.97;4.10;;;27.50;6.70;;;;;;5011793;28;20891;-71
2022/08/10 10:03:21;;;;;;;8.18;4.47;;;27.60;5.10;;;;;;5030122;28;20414;-72
2022/08/10 10:06:02;;;;;;;4.40;4.00;;;27.70;4.60;;;;;;5030180;28;20402;-73
2022/08/10 10:09:02;;;;;;;7.53;3.67;;;28.00;6.20;;;;;;5029489;28;20439;-72
2022/08/10 10:11:46;;;;;;;6.90;4.00;;;27.90;5.30;;;;;;5033453;28;20478;-71
2022/08/10 10:17:59;;;;;;;7.35;4.18;;;28.20;4.80;;;;;;5034005;28;20371;-73
2022/08/10 10:20:51;;;;;;;8.90;4.20;;;28.30;4.70;;;;;;5033874;28;20379;-72
2022/08/10 10:23:41;;;;;;;6.50;4.10;;;28.30;4.60;;;;;;5033683;28;20446;-73
2022/08/10 10:26:13;;;;;;;11.93;4.30;;;28.40;3.80;;;;;;5033533;28;20848;-71
2022/08/10 10:28:47;;;;;;;7.80;3.87;;;28.40;4.00;;;;;;5033161;28;20482;-74
2022/08/10 10:31:38;;;;;;;6.97;4.20;;;28.30;4.10;;;;;;5033314;28;20383;-71
2022/08/10 10:34:25;;;;;;;4.78;4.20;;;28.40;4.10;;;;;;5033285;28;20406;-72
2022/08/10 10:36:52;;;;;;;5.70;4.35;;;28.20;4.50;;;;;;5033133;28;20375;-71
2022/08/10 10:39:20;;;;;;;9.52;4.82;;;28.30;5.00;;;;;;5033516;28;20390;-71
2022/08/10 10:42:16;;;;;;;11.02;4.00;;;28.40;4.20;;;;;;5033639;28;20846;-72
2022/08/10 10:45:05;;;;;;;5.82;4.47;;;28.60;4.50;;;;;;5033636;28;20962;-71
2022/08/10 10:47:45;;;;;;;5.40;4.30;;;28.60;3.80;;;;;;5032020;28;20405;-72
2022/08/10 10:50:14;;;;;;;5.10;4.20;;;28.40;4.00;;;;;;5033452;28;20383;-71
2022/08/10 10:53:05;;;;;;;9.52;4.30;;;28.50;4.30;;;;;;5033259;28;20387;-72
2022/08/10 10:55:44;;;;;;;7.25;4.70;;;28.60;4.60;;;;;;5033233;28;20383;-73
2022/08/10 10:58:21;;;;;;;5.97;4.30;;;28.80;4.00;;;;;;5032912;28;20391;-72
2022/08/10 11:01:21;;;;;;;6.75;4.18;;;28.90;3.70;;;;;;5033127;28;20395;-73
2022/08/10 11:03:50;;;;;;;6.28;4.28;;;28.90;3.40;;;;;;5032258;28;20406;-73
2022/08/10 11:06:44;;;;;;;6.50;4.40;;;28.90;3.00;;;;;;5033034;28;20803;-73
2022/08/10 11:09:18;;;;;;;6.97;4.30;;;28.80;3.10;;;;;;5041283;28;20423;-74
2022/08/10 11:11:47;;;;;;;4.88;4.10;;;28.80;3.80;;;;;;5042324;28;20482;-74
2022/08/10 11:14:30;;;;;;;9.43;4.60;;;28.90;3.60;;;;;;5040210;28;20410;-73
2022/08/10 11:17:13;;;;;;;5.50;4.30;;;28.90;3.20;;;;;;5042019;28;20455;-74
2022/08/10 11:19:45;;;;;;;8.70;4.20;;;29.00;4.50;;;;;;5039550;28;20391;-73
2022/08/10 11:22:27;;;;;;;6.90;3.70;;;29.10;4.20;;;;;;5037955;28;20623;-73
2022/08/10 11:25:19;;;;;;;5.85;4.00;;;29.30;4.10;;;;;;5033713;28;20383;-74
2022/08/10 11:28:20;;;;;;;4.75;3.75;;;29.30;3.40;;;;;;5033866;28;20867;-72
2022/08/10 11:30:57;;;;;;;7.35;4.43;;;29.20;2.60;;;;;;5032969;28;20510;-72
2022/08/10 11:33:40;;;;;;;5.80;4.22;;;29.20;2.50;;;;;;5033347;28;20411;-72
2022/08/10 11:36:19;;;;;;;7.93;3.83;;;29.10;3.00;;;;;;5032708;28;20399;-72
2022/08/10 11:39:20;;;;;;;9.68;4.18;;;28.90;2.80;;;;;;5033998;28;20797;-72
2022/08/10 11:42:09;;;;;;;4.68;4.10;;;28.90;2.50;;;;;;5027784;28;20403;-74
2022/08/10 11:44:58;;;;;;;10.52;4.60;;;28.80;3.30;;;;;;5024586;28;20971;-73
2022/08/10 11:48:06;;;;;;;7.65;3.95;;;29.00;2.60;;;;;;5010927;28;20404;-73
2022/08/10 11:50:52;;;;;;;6.53;4.40;;;29.10;2.70;;;;;;5025716;28;20925;-73
2022/08/10 11:53:48;;;;;;;5.65;4.10;;;29.30;2.30;;;;;;5024155;28;20406;-72
2022/08/10 11:56:26;;;;;;;6.07;4.10;;;29.40;1.80;;;;;;5028255;28;20495;-73
2022/08/10 12:01:41;;;;;;;6.63;4.10;;;29.50;2.50;;;;;;5019019;28;20516;-72
2022/08/10 12:04:08;;;;;;;9.00;3.90;;;29.70;2.00;;;;;;5046391;28;20394;-74
2022/08/10 12:06:37;;;;;;;6.55;4.43;;;29.80;1.70;;;;;;5037764;28;20462;-71
2022/08/10 12:09:04;;;;;;;5.05;4.22;;;29.80;1.00;;;;;;5027012;28;20778;-73
2022/08/10 12:11:31;;;;;;;8.20;4.10;;;29.70;1.20;;;;;;5023520;28;20418;-72
2022/08/10 12:14:15;;;;;;;5.60;4.10;;;29.90;1.90;;;;;;5030680;28;20399;-74
2022/08/10 12:16:47;;;;;;;7.80;4.20;;;30.10;2.20;;;;;;5028217;28;20471;-73
2022/08/10 12:19:17;;;;;;;5.60;4.25;;;30.10;1.60;;;;;;5030035;28;20806;-70
2022/08/10 12:21:56;;;;;;;5.37;3.80;;;30.30;1.00;;;;;;5031434;28;20387;-72
2022/08/10 12:24:48;;;;;;;4.47;4.00;;;30.40;1.00;;;;;;5046716;28;20395;-74
2022/08/10 12:27:28;;;;;;;6.53;4.10;;;30.50;1.00;;;;;;5031476;28;21029;-75
2022/08/10 12:30:08;;;;;;;6.93;4.30;;;30.40;1.00;;;;;;5032129;28;20398;-74
2022/08/10 12:32:47;;;;;;;5.38;4.10;;;30.30;1.40;;;;;;5032063;28;20383;-73
2022/08/10 12:35:35;;;;;;;6.40;4.43;;;30.00;1.30;;;;;;5032067;28;20590;-75
2022/08/10 12:38:24;;;;;;;7.22;3.80;;;30.10;1.10;;;;;;5033025;28;20403;-74
2022/08/10 12:41:05;;;;;;;7.50;4.18;;;30.20;1.30;;;;;;5033611;28;20383;-71
2022/08/10 12:43:42;;;;;;;7.00;3.95;;;30.40;1.00;;;;;;5032403;28;20402;-75
2022/08/10 12:46:45;;;;;;;5.00;3.80;;;30.30;1.00;;;;;;5036881;28;20783;-76
2022/08/10 12:49:41;;;;;;;7.25;4.13;;;30.10;1.00;;;;;;5035916;28;20391;-74
2022/08/10 12:52:30;;;;;;;5.03;4.20;;;30.40;1.00;;;;;;5032777;28;20450;-73
2022/08/10 12:54:58;;;;;;;7.32;3.95;;;30.60;1.00;;;;;;5031216;28;20403;-74
2022/08/10 12:57:25;;;;;;;6.13;4.40;;;30.70;1.30;;;;;;5031616;28;20387;-73
2022/08/10 12:59:56;;;;;;;7.00;4.30;;;30.80;1.00;;;;;;5031606;28;20422;-73
2022/08/10 13:02:28;;;;;;;8.82;4.38;;;30.90;1.10;;;;;;5032148;28;20379;-75
2022/08/10 13:04:57;;;;;;;4.60;4.20;;;30.90;1.30;;;;;;5031271;28;20450;-76
2022/08/10 13:07:31;;;;;;;5.15;3.95;;;31.00;1.00;;;;;;5031082;28;20402;-76
2022/08/10 13:10:07;;;;;;;6.00;3.80;;;30.90;1.00;;;;;;5031418;28;20521;-75
2022/08/10 13:12:36;;;;;;;11.55;4.60;;;31.10;1.40;;;;;;5031255;28;20379;-75
2022/08/10 13:15:21;;;;;;;4.18;3.78;;;31.20;1.80;;;;;;5031263;28;20379;-75
2022/08/10 13:17:49;;;;;;;7.85;3.60;;;31.30;1.00;;;;;;5031154;28;21005;-74
2022/08/10 13:20:39;;;;;;;6.18;3.75;;;31.20;1.00;;;;;;5031298;28;20391;-73
2022/08/10 13:23:11;;;;;;;5.40;3.55;;;31.10;1.00;;;;;;5030982;28;20378;-75
2022/08/10 13:25:44;;;;;;;6.85;3.60;;;30.90;1.00;;;;;;5031422;28;20379;-73
2022/08/10 13:28:13;;;;;;;4.73;3.50;;;30.70;1.00;;;;;;5030844;28;20748;-75
2022/08/10 13:30:41;;;;;;;3.83;3.38;;;30.60;1.00;;;;;;5031462;28;20391;-74
2022/08/10 13:33:12;;;;;;;5.60;3.70;;;30.90;1.00;;;;;;5031413;28;20434;-75